sensor_id;sensor_type;location;lat;lon;timestamp;temperature;humidity
1011;DHT22;494;48.744;10.106;2023-05-10T00:00:16;16.70;55.70
1011;DHT22;494;48.744;10.106;2023-05-10T00:02:45;16.70;55.80
1011;DHT22;494;48.744;10.106;2023-05-10T00:05:14;16.70;55.60
1011;DHT22;494;48.744;10.106;2023-05-10T00:07:43;16.70;55.60
1011;DHT22;494;48.744;10.106;2023-05-10T00:10:12;16.70;55.40
1011;DHT22;494;48.744;10.106;2023-05-10T00:12:43;16.70;55.30
1011;DHT22;494;48.744;10.106;2023-05-10T00:15:12;16.60;55.20
1011;DHT22;494;48.744;10.106;2023-05-10T00:17:41;16.60;55.10
1011;DHT22;494;48.744;10.106;2023-05-10T00:20:11;16.50;55.10
1011;DHT22;494;48.744;10.106;2023-05-10T00:22:40;16.50;54.90
1011;DHT22;494;48.744;10.106;2023-05-10T00:25:09;16.40;54.90
1011;DHT22;494;48.744;10.106;2023-05-10T00:27:38;16.40;55.10
1011;DHT22;494;48.744;10.106;2023-05-10T00:30:10;16.50;55.40
1011;DHT22;494;48.744;10.106;2023-05-10T00:32:39;16.50;55.30
1011;DHT22;494;48.744;10.106;2023-05-10T00:35:08;16.50;55.20
1011;DHT22;494;48.744;10.106;2023-05-10T00:37:37;16.50;55.30
1011;DHT22;494;48.744;10.106;2023-05-10T00:40:07;16.50;55.40
1011;DHT22;494;48.744;10.106;2023-05-10T00:42:36;16.40;55.60
1011;DHT22;494;48.744;10.106;2023-05-10T00:45:06;16.40;55.80
1011;DHT22;494;48.744;10.106;2023-05-10T00:47:38;16.50;55.60
1011;DHT22;494;48.744;10.106;2023-05-10T00:50:08;16.50;55.70
1011;DHT22;494;48.744;10.106;2023-05-10T00:52:38;16.50;55.60
1011;DHT22;494;48.744;10.106;2023-05-10T00:55:08;16.40;54.90
1011;DHT22;494;48.744;10.106;2023-05-10T00:57:38;16.30;55.00
1011;DHT22;494;48.744;10.106;2023-05-10T01:00:11;16.30;55.50
1011;DHT22;494;48.744;10.106;2023-05-10T01:02:45;16.30;55.20
1011;DHT22;494;48.744;10.106;2023-05-10T01:05:14;16.10;54.60
1011;DHT22;494;48.744;10.106;2023-05-10T01:07:43;16.00;54.90
1011;DHT22;494;48.744;10.106;2023-05-10T01:10:12;16.00;55.20
1011;DHT22;494;48.744;10.106;2023-05-10T01:12:42;16.10;54.80
1011;DHT22;494;48.744;10.106;2023-05-10T01:15:16;16.10;55.10
1011;DHT22;494;48.744;10.106;2023-05-10T01:17:47;16.10;54.60
1011;DHT22;494;48.744;10.106;2023-05-10T01:20:17;16.00;54.70
1011;DHT22;494;48.744;10.106;2023-05-10T01:23:17;16.00;55.20
1011;DHT22;494;48.744;10.106;2023-05-10T01:26:14;16.10;55.20
1011;DHT22;494;48.744;10.106;2023-05-10T01:29:18;16.00;55.10
1011;DHT22;494;48.744;10.106;2023-05-10T01:32:14;16.00;55.00
1011;DHT22;494;48.744;10.106;2023-05-10T01:34:56;15.60;55.20
1011;DHT22;494;48.744;10.106;2023-05-10T01:37:38;15.60;56.60
1011;DHT22;494;48.744;10.106;2023-05-10T01:40:16;15.70;57.00
1011;DHT22;494;48.744;10.106;2023-05-10T01:42:51;15.70;56.70
1011;DHT22;494;48.744;10.106;2023-05-10T01:45:30;15.60;56.40
1011;DHT22;494;48.744;10.106;2023-05-10T01:48:09;15.40;56.70
1011;DHT22;494;48.744;10.106;2023-05-10T01:50:42;15.10;57.00
1011;DHT22;494;48.744;10.106;2023-05-10T01:53:13;14.80;56.90
1011;DHT22;494;48.744;10.106;2023-05-10T01:55:49;14.70;58.20
1011;DHT22;494;48.744;10.106;2023-05-10T01:58:27;14.40;59.40
1011;DHT22;494;48.744;10.106;2023-05-10T02:01:01;14.10;60.30
1011;DHT22;494;48.744;10.106;2023-05-10T02:03:35;14.10;60.10
1011;DHT22;494;48.744;10.106;2023-05-10T02:06:07;14.00;59.70
1011;DHT22;494;48.744;10.106;2023-05-10T02:08:40;14.00;60.50
1011;DHT22;494;48.744;10.106;2023-05-10T02:11:11;14.00;60.90
1011;DHT22;494;48.744;10.106;2023-05-10T02:13:42;14.00;60.00
1011;DHT22;494;48.744;10.106;2023-05-10T02:16:14;14.00;59.70
1011;DHT22;494;48.744;10.106;2023-05-10T02:18:47;13.90;59.90
1011;DHT22;494;48.744;10.106;2023-05-10T02:21:17;14.00;60.00
1011;DHT22;494;48.744;10.106;2023-05-10T02:23:50;14.00;59.80
1011;DHT22;494;48.744;10.106;2023-05-10T02:26:21;13.90;59.60
1011;DHT22;494;48.744;10.106;2023-05-10T02:28:53;13.90;59.80
1011;DHT22;494;48.744;10.106;2023-05-10T02:31:25;13.80;60.20
1011;DHT22;494;48.744;10.106;2023-05-10T02:33:56;14.00;60.60
1011;DHT22;494;48.744;10.106;2023-05-10T02:36:27;14.00;60.20
1011;DHT22;494;48.744;10.106;2023-05-10T02:38:57;14.00;59.40
1011;DHT22;494;48.744;10.106;2023-05-10T02:41:28;13.90;59.80
1011;DHT22;494;48.744;10.106;2023-05-10T02:43:59;13.70;59.30
1011;DHT22;494;48.744;10.106;2023-05-10T02:46:31;13.50;60.90
1011;DHT22;494;48.744;10.106;2023-05-10T02:49:01;13.40;60.80
1011;DHT22;494;48.744;10.106;2023-05-10T02:51:32;13.30;60.70
1011;DHT22;494;48.744;10.106;2023-05-10T02:54:09;13.30;61.40
1011;DHT22;494;48.744;10.106;2023-05-10T02:56:42;13.50;62.20
1011;DHT22;494;48.744;10.106;2023-05-10T02:59:16;13.60;61.00
1011;DHT22;494;48.744;10.106;2023-05-10T03:01:45;13.60;60.00
1011;DHT22;494;48.744;10.106;2023-05-10T03:04:15;13.60;59.60
1011;DHT22;494;48.744;10.106;2023-05-10T03:06:44;13.70;59.60
1011;DHT22;494;48.744;10.106;2023-05-10T03:09:13;13.70;59.10
1011;DHT22;494;48.744;10.106;2023-05-10T03:11:52;13.50;59.00
1011;DHT22;494;48.744;10.106;2023-05-10T03:14:34;13.50;59.20
1011;DHT22;494;48.744;10.106;2023-05-10T03:17:18;13.40;58.80
1011;DHT22;494;48.744;10.106;2023-05-10T03:19:55;13.60;59.10
1011;DHT22;494;48.744;10.106;2023-05-10T03:22:26;13.50;59.40
1011;DHT22;494;48.744;10.106;2023-05-10T03:25:00;13.70;58.70
1011;DHT22;494;48.744;10.106;2023-05-10T03:27:34;13.60;58.20
1011;DHT22;494;48.744;10.106;2023-05-10T03:30:07;13.60;58.00
1011;DHT22;494;48.744;10.106;2023-05-10T03:32:36;13.50;58.00
1011;DHT22;494;48.744;10.106;2023-05-10T03:35:09;13.50;58.70
1011;DHT22;494;48.744;10.106;2023-05-10T03:37:39;13.60;58.10
1011;DHT22;494;48.744;10.106;2023-05-10T03:40:09;13.70;58.20
1011;DHT22;494;48.744;10.106;2023-05-10T03:42:38;13.70;57.90
1011;DHT22;494;48.744;10.106;2023-05-10T03:45:08;13.80;57.00
1011;DHT22;494;48.744;10.106;2023-05-10T03:47:37;13.80;56.80
1011;DHT22;494;48.744;10.106;2023-05-10T03:50:08;13.80;56.80
1011;DHT22;494;48.744;10.106;2023-05-10T03:52:37;13.80;56.10
1011;DHT22;494;48.744;10.106;2023-05-10T03:55:07;13.80;56.40
1011;DHT22;494;48.744;10.106;2023-05-10T03:57:36;13.70;56.30
1011;DHT22;494;48.744;10.106;2023-05-10T04:00:06;13.60;57.50
1011;DHT22;494;48.744;10.106;2023-05-10T04:02:35;13.50;57.50
1011;DHT22;494;48.744;10.106;2023-05-10T04:05:05;13.40;58.20
1011;DHT22;494;48.744;10.106;2023-05-10T04:07:36;13.50;58.20
1011;DHT22;494;48.744;10.106;2023-05-10T04:10:06;13.50;57.60
1011;DHT22;494;48.744;10.106;2023-05-10T04:12:35;13.30;57.90
1011;DHT22;494;48.744;10.106;2023-05-10T04:15:05;13.30;59.40
1011;DHT22;494;48.744;10.106;2023-05-10T04:17:34;13.30;58.60
1011;DHT22;494;48.744;10.106;2023-05-10T04:20:04;13.40;58.50
1011;DHT22;494;48.744;10.106;2023-05-10T04:22:35;13.60;58.40
1011;DHT22;494;48.744;10.106;2023-05-10T04:25:05;13.70;57.90
1011;DHT22;494;48.744;10.106;2023-05-10T04:27:34;13.70;57.60
1011;DHT22;494;48.744;10.106;2023-05-10T04:30:05;13.80;56.80
1011;DHT22;494;48.744;10.106;2023-05-10T04:32:34;13.70;56.60
1011;DHT22;494;48.744;10.106;2023-05-10T04:35:03;13.80;57.00
1011;DHT22;494;48.744;10.106;2023-05-10T04:37:33;13.90;56.90
1011;DHT22;494;48.744;10.106;2023-05-10T04:40:04;13.90;56.80
1011;DHT22;494;48.744;10.106;2023-05-10T04:42:34;14.00;56.70
1011;DHT22;494;48.744;10.106;2023-05-10T04:45:03;14.00;56.10
1011;DHT22;494;48.744;10.106;2023-05-10T04:47:32;14.00;55.80
1011;DHT22;494;48.744;10.106;2023-05-10T04:50:01;14.10;55.90
1011;DHT22;494;48.744;10.106;2023-05-10T04:52:29;14.10;56.10
1011;DHT22;494;48.744;10.106;2023-05-10T04:54:59;14.10;54.80
1011;DHT22;494;48.744;10.106;2023-05-10T04:57:28;14.20;55.10
1011;DHT22;494;48.744;10.106;2023-05-10T04:59:56;14.20;55.20
1011;DHT22;494;48.744;10.106;2023-05-10T05:02:25;14.30;54.50
1011;DHT22;494;48.744;10.106;2023-05-10T05:04:56;14.40;54.50
1011;DHT22;494;48.744;10.106;2023-05-10T05:07:26;14.40;54.50
1011;DHT22;494;48.744;10.106;2023-05-10T05:09:55;14.40;54.30
1011;DHT22;494;48.744;10.106;2023-05-10T05:12:25;14.40;53.80
1011;DHT22;494;48.744;10.106;2023-05-10T05:14:54;14.60;54.10
1011;DHT22;494;48.744;10.106;2023-05-10T05:17:24;14.60;54.10
1011;DHT22;494;48.744;10.106;2023-05-10T05:19:54;14.70;53.70
1011;DHT22;494;48.744;10.106;2023-05-10T05:22:24;14.80;53.10
1011;DHT22;494;48.744;10.106;2023-05-10T05:24:57;14.90;52.90
1011;DHT22;494;48.744;10.106;2023-05-10T05:27:28;15.00;51.70
1011;DHT22;494;48.744;10.106;2023-05-10T05:29:57;14.90;50.40
1011;DHT22;494;48.744;10.106;2023-05-10T05:32:26;14.80;51.30
1011;DHT22;494;48.744;10.106;2023-05-10T05:34:55;14.90;51.70
1011;DHT22;494;48.744;10.106;2023-05-10T05:37:23;14.90;50.10
1011;DHT22;494;48.744;10.106;2023-05-10T05:39:52;14.90;50.50
1011;DHT22;494;48.744;10.106;2023-05-10T05:42:21;14.90;50.50
1011;DHT22;494;48.744;10.106;2023-05-10T05:44:52;15.00;50.50
1011;DHT22;494;48.744;10.106;2023-05-10T05:47:20;15.00;50.10
1011;DHT22;494;48.744;10.106;2023-05-10T05:49:49;15.00;50.50
1011;DHT22;494;48.744;10.106;2023-05-10T05:52:18;15.00;50.40
1011;DHT22;494;48.744;10.106;2023-05-10T05:54:49;15.20;50.30
1011;DHT22;494;48.744;10.106;2023-05-10T05:57:18;15.10;49.40
1011;DHT22;494;48.744;10.106;2023-05-10T05:59:46;15.10;49.30
1011;DHT22;494;48.744;10.106;2023-05-10T06:02:16;14.90;49.00
1011;DHT22;494;48.744;10.106;2023-05-10T06:04:45;15.00;50.20
1011;DHT22;494;48.744;10.106;2023-05-10T06:07:14;15.20;50.30
1011;DHT22;494;48.744;10.106;2023-05-10T06:09:43;15.30;49.50
1011;DHT22;494;48.744;10.106;2023-05-10T06:12:12;15.50;49.30
1011;DHT22;494;48.744;10.106;2023-05-10T06:14:41;15.60;47.30
1011;DHT22;494;48.744;10.106;2023-05-10T06:17:09;15.50;46.20
1011;DHT22;494;48.744;10.106;2023-05-10T06:19:41;15.40;47.10
1011;DHT22;494;48.744;10.106;2023-05-10T06:22:10;15.50;47.30
1011;DHT22;494;48.744;10.106;2023-05-10T06:24:39;15.40;45.40
1011;DHT22;494;48.744;10.106;2023-05-10T06:27:10;15.40;46.60
1011;DHT22;494;48.744;10.106;2023-05-10T06:29:38;15.40;46.70
1011;DHT22;494;48.744;10.106;2023-05-10T06:32:28;15.40;46.70
1011;DHT22;494;48.744;10.106;2023-05-10T06:35:00;15.40;45.20
1011;DHT22;494;48.744;10.106;2023-05-10T06:37:31;15.40;47.50
1011;DHT22;494;48.744;10.106;2023-05-10T06:40:17;15.50;47.30
1011;DHT22;494;48.744;10.106;2023-05-10T06:42:51;15.70;45.80
1011;DHT22;494;48.744;10.106;2023-05-10T06:45:21;15.60;44.50
1011;DHT22;494;48.744;10.106;2023-05-10T06:47:50;15.80;45.30
1011;DHT22;494;48.744;10.106;2023-05-10T06:50:20;15.80;44.50
1011;DHT22;494;48.744;10.106;2023-05-10T06:52:49;15.90;43.70
1011;DHT22;494;48.744;10.106;2023-05-10T06:55:19;15.80;42.30
1011;DHT22;494;48.744;10.106;2023-05-10T06:57:47;15.80;42.50
1011;DHT22;494;48.744;10.106;2023-05-10T07:00:18;15.50;44.40
1011;DHT22;494;48.744;10.106;2023-05-10T07:02:47;15.50;44.60
1011;DHT22;494;48.744;10.106;2023-05-10T07:05:16;15.50;45.20
1011;DHT22;494;48.744;10.106;2023-05-10T07:07:46;15.60;44.80
1011;DHT22;494;48.744;10.106;2023-05-10T07:10:15;15.80;43.90
1011;DHT22;494;48.744;10.106;2023-05-10T07:12:44;16.00;43.90
1011;DHT22;494;48.744;10.106;2023-05-10T07:15:13;16.10;42.30
1011;DHT22;494;48.744;10.106;2023-05-10T07:17:43;16.10;42.20
1011;DHT22;494;48.744;10.106;2023-05-10T07:20:12;16.10;40.90
1011;DHT22;494;48.744;10.106;2023-05-10T07:22:41;16.20;40.30
1011;DHT22;494;48.744;10.106;2023-05-10T07:25:11;16.40;41.00
1011;DHT22;494;48.744;10.106;2023-05-10T07:27:40;16.60;40.00
1011;DHT22;494;48.744;10.106;2023-05-10T07:30:10;16.60;40.40
1011;DHT22;494;48.744;10.106;2023-05-10T07:32:39;16.60;40.50
1011;DHT22;494;48.744;10.106;2023-05-10T07:35:09;16.70;40.90
1011;DHT22;494;48.744;10.106;2023-05-10T07:37:37;16.70;38.70
1011;DHT22;494;48.744;10.106;2023-05-10T07:40:07;16.60;39.00
1011;DHT22;494;48.744;10.106;2023-05-10T07:42:39;16.60;40.30
1011;DHT22;494;48.744;10.106;2023-05-10T07:45:08;16.80;40.20
1011;DHT22;494;48.744;10.106;2023-05-10T07:47:37;16.70;39.00
1011;DHT22;494;48.744;10.106;2023-05-10T07:50:08;16.70;39.00
1011;DHT22;494;48.744;10.106;2023-05-10T07:52:37;16.60;40.00
1011;DHT22;494;48.744;10.106;2023-05-10T07:55:06;16.80;38.00
1011;DHT22;494;48.744;10.106;2023-05-10T07:57:36;16.80;38.30
1011;DHT22;494;48.744;10.106;2023-05-10T08:00:11;17.00;39.00
1011;DHT22;494;48.744;10.106;2023-05-10T08:02:41;17.00;37.90
1011;DHT22;494;48.744;10.106;2023-05-10T08:05:10;17.00;37.20
1011;DHT22;494;48.744;10.106;2023-05-10T08:07:39;17.00;37.80
1011;DHT22;494;48.744;10.106;2023-05-10T08:10:08;16.80;38.00
1011;DHT22;494;48.744;10.106;2023-05-10T08:12:39;16.90;37.60
1011;DHT22;494;48.744;10.106;2023-05-10T08:15:10;16.80;37.00
1011;DHT22;494;48.744;10.106;2023-05-10T08:17:39;16.80;38.60
1011;DHT22;494;48.744;10.106;2023-05-10T08:20:08;16.80;37.60
1011;DHT22;494;48.744;10.106;2023-05-10T08:22:39;16.90;38.20
1011;DHT22;494;48.744;10.106;2023-05-10T08:25:08;16.90;36.60
1011;DHT22;494;48.744;10.106;2023-05-10T08:27:36;17.20;38.00
1011;DHT22;494;48.744;10.106;2023-05-10T08:30:06;17.30;36.80
1011;DHT22;494;48.744;10.106;2023-05-10T08:32:39;17.40;34.30
1011;DHT22;494;48.744;10.106;2023-05-10T08:35:08;17.50;34.80
1011;DHT22;494;48.744;10.106;2023-05-10T08:37:47;17.60;37.20
1011;DHT22;494;48.744;10.106;2023-05-10T08:40:16;17.60;37.80
1011;DHT22;494;48.744;10.106;2023-05-10T08:42:51;17.60;37.10
1011;DHT22;494;48.744;10.106;2023-05-10T08:45:27;17.70;37.00
1011;DHT22;494;48.744;10.106;2023-05-10T08:48:00;17.70;36.50
1011;DHT22;494;48.744;10.106;2023-05-10T08:50:30;17.90;35.80
1011;DHT22;494;48.744;10.106;2023-05-10T08:53:00;17.90;36.10
1011;DHT22;494;48.744;10.106;2023-05-10T08:55:32;18.10;35.30
1011;DHT22;494;48.744;10.106;2023-05-10T08:58:04;18.30;33.70
1011;DHT22;494;48.744;10.106;2023-05-10T09:00:34;18.40;35.10
1011;DHT22;494;48.744;10.106;2023-05-10T09:03:04;18.50;34.40
1011;DHT22;494;48.744;10.106;2023-05-10T09:05:34;18.70;33.10
1011;DHT22;494;48.744;10.106;2023-05-10T09:08:04;18.80;31.10
1011;DHT22;494;48.744;10.106;2023-05-10T09:10:35;18.70;31.00
1011;DHT22;494;48.744;10.106;2023-05-10T09:13:05;18.60;33.00
1011;DHT22;494;48.744;10.106;2023-05-10T09:15:36;18.80;32.50
1011;DHT22;494;48.744;10.106;2023-05-10T09:18:05;18.80;28.30
1011;DHT22;494;48.744;10.106;2023-05-10T09:20:33;18.90;29.80
1011;DHT22;494;48.744;10.106;2023-05-10T09:23:02;19.00;28.20
1011;DHT22;494;48.744;10.106;2023-05-10T09:25:32;19.10;25.10
1011;DHT22;494;48.744;10.106;2023-05-10T09:28:01;18.90;26.40
1011;DHT22;494;48.744;10.106;2023-05-10T09:30:34;19.00;24.10
1011;DHT22;494;48.744;10.106;2023-05-10T09:33:04;19.00;23.90
1011;DHT22;494;48.744;10.106;2023-05-10T09:35:33;19.30;23.00
1011;DHT22;494;48.744;10.106;2023-05-10T09:38:03;19.20;22.90
1011;DHT22;494;48.744;10.106;2023-05-10T09:40:33;19.30;21.30
1011;DHT22;494;48.744;10.106;2023-05-10T09:43:04;19.30;21.90
1011;DHT22;494;48.744;10.106;2023-05-10T09:45:36;19.50;22.20
1011;DHT22;494;48.744;10.106;2023-05-10T09:48:05;19.60;21.30
1011;DHT22;494;48.744;10.106;2023-05-10T09:50:34;19.50;21.50
1011;DHT22;494;48.744;10.106;2023-05-10T09:53:03;19.70;21.60
1011;DHT22;494;48.744;10.106;2023-05-10T09:55:40;19.80;21.30
1011;DHT22;494;48.744;10.106;2023-05-10T09:58:11;19.80;20.90
1011;DHT22;494;48.744;10.106;2023-05-10T10:00:44;19.80;19.90
1011;DHT22;494;48.744;10.106;2023-05-10T10:03:18;19.70;22.40
1011;DHT22;494;48.744;10.106;2023-05-10T10:05:49;19.70;23.60
1011;DHT22;494;48.744;10.106;2023-05-10T10:08:18;19.40;25.40
1011;DHT22;494;48.744;10.106;2023-05-10T10:10:47;19.30;24.40
1011;DHT22;494;48.744;10.106;2023-05-10T10:13:22;19.10;25.40
1011;DHT22;494;48.744;10.106;2023-05-10T10:19:44;18.40;28.10
1011;DHT22;494;48.744;10.106;2023-05-10T10:22:15;17.90;29.90
1011;DHT22;494;48.744;10.106;2023-05-10T10:24:45;17.60;31.90
1011;DHT22;494;48.744;10.106;2023-05-10T10:27:22;17.20;34.10
1011;DHT22;494;48.744;10.106;2023-05-10T10:30:02;17.00;37.50
1011;DHT22;494;48.744;10.106;2023-05-10T10:33:08;16.90;36.70
1011;DHT22;494;48.744;10.106;2023-05-10T10:35:55;16.90;37.20
1011;DHT22;494;48.744;10.106;2023-05-10T10:38:27;16.70;37.40
1011;DHT22;494;48.744;10.106;2023-05-10T10:41:09;16.50;39.40
1011;DHT22;494;48.744;10.106;2023-05-10T10:43:39;16.40;39.00
1011;DHT22;494;48.744;10.106;2023-05-10T10:46:12;16.50;40.10
1011;DHT22;494;48.744;10.106;2023-05-10T10:48:49;16.60;38.20
1011;DHT22;494;48.744;10.106;2023-05-10T10:51:37;16.60;37.00
1011;DHT22;494;48.744;10.106;2023-05-10T10:54:09;16.90;38.80
1011;DHT22;494;48.744;10.106;2023-05-10T10:56:38;17.10;36.70
1011;DHT22;494;48.744;10.106;2023-05-10T10:59:07;17.50;35.30
1011;DHT22;494;48.744;10.106;2023-05-10T11:01:37;17.70;35.70
1011;DHT22;494;48.744;10.106;2023-05-10T11:04:19;18.00;33.00
1011;DHT22;494;48.744;10.106;2023-05-10T11:06:48;18.30;32.00
1011;DHT22;494;48.744;10.106;2023-05-10T11:09:17;18.60;30.50
1011;DHT22;494;48.744;10.106;2023-05-10T11:11:50;18.70;29.70
1011;DHT22;494;48.744;10.106;2023-05-10T11:14:27;18.80;28.90
1011;DHT22;494;48.744;10.106;2023-05-10T11:17:28;19.00;28.40
1011;DHT22;494;48.744;10.106;2023-05-10T11:20:10;19.20;27.50
1011;DHT22;494;48.744;10.106;2023-05-10T11:22:55;19.20;29.50
1011;DHT22;494;48.744;10.106;2023-05-10T11:25:43;19.30;28.60
1011;DHT22;494;48.744;10.106;2023-05-10T11:28:32;19.70;27.30
1011;DHT22;494;48.744;10.106;2023-05-10T11:31:03;19.50;26.20
1011;DHT22;494;48.744;10.106;2023-05-10T11:33:44;19.40;25.90
1011;DHT22;494;48.744;10.106;2023-05-10T11:36:16;19.40;26.10
1011;DHT22;494;48.744;10.106;2023-05-10T11:38:46;19.30;26.80
1011;DHT22;494;48.744;10.106;2023-05-10T11:41:18;19.20;26.80
1011;DHT22;494;48.744;10.106;2023-05-10T11:43:52;19.10;25.60
1011;DHT22;494;48.744;10.106;2023-05-10T11:46:23;19.00;26.80
1011;DHT22;494;48.744;10.106;2023-05-10T11:48:55;18.90;26.80
1011;DHT22;494;48.744;10.106;2023-05-10T11:51:33;18.80;27.50
1011;DHT22;494;48.744;10.106;2023-05-10T11:54:06;18.60;26.20
1011;DHT22;494;48.744;10.106;2023-05-10T11:56:41;18.40;28.00
1011;DHT22;494;48.744;10.106;2023-05-10T11:59:26;18.30;27.80
1011;DHT22;494;48.744;10.106;2023-05-10T12:01:55;18.30;29.10
1011;DHT22;494;48.744;10.106;2023-05-10T12:04:24;18.30;29.10
1011;DHT22;494;48.744;10.106;2023-05-10T12:06:58;18.30;29.40
1011;DHT22;494;48.744;10.106;2023-05-10T12:09:26;18.20;28.90
1011;DHT22;494;48.744;10.106;2023-05-10T12:12:11;18.00;28.90
1011;DHT22;494;48.744;10.106;2023-05-10T12:14:48;18.00;30.40
1011;DHT22;494;48.744;10.106;2023-05-10T12:17:18;18.00;30.90
1011;DHT22;494;48.744;10.106;2023-05-10T12:19:47;17.90;30.50
1011;DHT22;494;48.744;10.106;2023-05-10T12:22:20;17.80;31.10
1011;DHT22;494;48.744;10.106;2023-05-10T12:24:50;17.70;30.40
1011;DHT22;494;48.744;10.106;2023-05-10T12:27:19;17.60;30.80
1011;DHT22;494;48.744;10.106;2023-05-10T12:29:48;17.40;30.10
1011;DHT22;494;48.744;10.106;2023-05-10T12:32:17;17.40;31.10
1011;DHT22;494;48.744;10.106;2023-05-10T12:34:46;17.40;31.70
1011;DHT22;494;48.744;10.106;2023-05-10T12:37:15;17.40;32.50
1011;DHT22;494;48.744;10.106;2023-05-10T12:39:52;17.40;33.50
1011;DHT22;494;48.744;10.106;2023-05-10T12:42:20;17.40;33.80
1011;DHT22;494;48.744;10.106;2023-05-10T12:44:55;17.30;34.00
1011;DHT22;494;48.744;10.106;2023-05-10T12:47:31;17.30;33.10
1011;DHT22;494;48.744;10.106;2023-05-10T12:50:01;17.40;33.70
1011;DHT22;494;48.744;10.106;2023-05-10T12:52:32;17.50;34.60
1011;DHT22;494;48.744;10.106;2023-05-10T12:55:01;17.60;34.90
1011;DHT22;494;48.744;10.106;2023-05-10T12:57:30;17.70;35.00
1011;DHT22;494;48.744;10.106;2023-05-10T12:59:59;17.80;35.50
1011;DHT22;494;48.744;10.106;2023-05-10T13:02:27;17.90;35.20
1011;DHT22;494;48.744;10.106;2023-05-10T13:04:56;18.00;35.00
1011;DHT22;494;48.744;10.106;2023-05-10T13:07:25;18.00;35.70
1011;DHT22;494;48.744;10.106;2023-05-10T13:09:55;18.00;35.30
1011;DHT22;494;48.744;10.106;2023-05-10T13:12:24;17.90;35.50
1011;DHT22;494;48.744;10.106;2023-05-10T13:14:53;17.80;36.20
1011;DHT22;494;48.744;10.106;2023-05-10T13:17:21;17.70;36.60
1011;DHT22;494;48.744;10.106;2023-05-10T13:19:50;17.60;34.70
1011;DHT22;494;48.744;10.106;2023-05-10T13:22:19;17.30;34.40
1011;DHT22;494;48.744;10.106;2023-05-10T13:25:07;16.80;35.30
1011;DHT22;494;48.744;10.106;2023-05-10T13:27:36;16.60;36.10
1011;DHT22;494;48.744;10.106;2023-05-10T13:30:06;16.30;37.40
1011;DHT22;494;48.744;10.106;2023-05-10T13:32:36;16.00;37.80
1011;DHT22;494;48.744;10.106;2023-05-10T13:35:06;15.80;39.80
1011;DHT22;494;48.744;10.106;2023-05-10T13:37:36;15.60;41.70
1011;DHT22;494;48.744;10.106;2023-05-10T13:40:08;15.50;42.40
1011;DHT22;494;48.744;10.106;2023-05-10T13:42:40;15.30;42.80
1011;DHT22;494;48.744;10.106;2023-05-10T13:45:10;15.30;42.00
1011;DHT22;494;48.744;10.106;2023-05-10T13:47:40;15.20;43.00
1011;DHT22;494;48.744;10.106;2023-05-10T13:50:09;15.30;42.00
1011;DHT22;494;48.744;10.106;2023-05-10T13:52:38;15.20;42.40
1011;DHT22;494;48.744;10.106;2023-05-10T13:55:09;15.40;42.70
1011;DHT22;494;48.744;10.106;2023-05-10T13:57:39;15.50;41.40
1011;DHT22;494;48.744;10.106;2023-05-10T14:00:10;15.70;40.90
1011;DHT22;494;48.744;10.106;2023-05-10T14:02:39;15.80;40.80
1011;DHT22;494;48.744;10.106;2023-05-10T14:05:09;15.90;40.80
1011;DHT22;494;48.744;10.106;2023-05-10T14:07:49;16.00;40.20
1011;DHT22;494;48.744;10.106;2023-05-10T14:10:29;16.00;39.90
1011;DHT22;494;48.744;10.106;2023-05-10T14:12:58;16.10;39.70
1011;DHT22;494;48.744;10.106;2023-05-10T14:15:26;16.10;39.60
1011;DHT22;494;48.744;10.106;2023-05-10T14:17:56;16.20;38.40
1011;DHT22;494;48.744;10.106;2023-05-10T14:20:25;16.40;37.60
1011;DHT22;494;48.744;10.106;2023-05-10T14:22:59;16.50;37.00
1011;DHT22;494;48.744;10.106;2023-05-10T14:25:29;16.50;36.00
1011;DHT22;494;48.744;10.106;2023-05-10T14:27:58;16.60;37.30
1011;DHT22;494;48.744;10.106;2023-05-10T14:30:27;16.70;35.70
1011;DHT22;494;48.744;10.106;2023-05-10T14:32:56;16.70;35.50
1011;DHT22;494;48.744;10.106;2023-05-10T14:35:25;16.80;36.70
1011;DHT22;494;48.744;10.106;2023-05-10T14:38:08;16.80;34.90
1011;DHT22;494;48.744;10.106;2023-05-10T14:40:44;16.90;35.00
1011;DHT22;494;48.744;10.106;2023-05-10T14:43:15;16.80;34.90
1011;DHT22;494;48.744;10.106;2023-05-10T14:46:09;16.90;35.50
1011;DHT22;494;48.744;10.106;2023-05-10T14:48:47;16.90;36.00
1011;DHT22;494;48.744;10.106;2023-05-10T14:51:19;16.90;35.30
1011;DHT22;494;48.744;10.106;2023-05-10T14:54:04;17.00;34.70
1011;DHT22;494;48.744;10.106;2023-05-10T14:56:38;17.00;33.80
1011;DHT22;494;48.744;10.106;2023-05-10T14:59:10;17.00;33.40
1011;DHT22;494;48.744;10.106;2023-05-10T15:01:48;17.00;32.80
1011;DHT22;494;48.744;10.106;2023-05-10T15:04:18;17.00;32.30
1011;DHT22;494;48.744;10.106;2023-05-10T15:06:47;17.00;34.10
1011;DHT22;494;48.744;10.106;2023-05-10T15:09:15;17.10;34.40
1011;DHT22;494;48.744;10.106;2023-05-10T15:11:46;17.20;34.00
1011;DHT22;494;48.744;10.106;2023-05-10T15:14:14;17.40;32.80
1011;DHT22;494;48.744;10.106;2023-05-10T15:16:43;17.40;32.60
1011;DHT22;494;48.744;10.106;2023-05-10T15:19:12;17.60;32.70
1011;DHT22;494;48.744;10.106;2023-05-10T15:21:40;17.70;32.80
1011;DHT22;494;48.744;10.106;2023-05-10T15:24:11;17.80;32.80
1011;DHT22;494;48.744;10.106;2023-05-10T15:26:40;17.80;32.20
1011;DHT22;494;48.744;10.106;2023-05-10T15:29:10;17.80;32.70
1011;DHT22;494;48.744;10.106;2023-05-10T15:31:39;17.80;31.40
1011;DHT22;494;48.744;10.106;2023-05-10T15:34:07;17.90;31.50
1011;DHT22;494;48.744;10.106;2023-05-10T15:36:52;17.80;28.40
1011;DHT22;494;48.744;10.106;2023-05-10T15:40:09;17.80;30.80
1011;DHT22;494;48.744;10.106;2023-05-10T15:42:38;17.70;31.80
1011;DHT22;494;48.744;10.106;2023-05-10T15:45:11;17.70;31.00
1011;DHT22;494;48.744;10.106;2023-05-10T15:47:39;17.70;30.00
1011;DHT22;494;48.744;10.106;2023-05-10T15:50:09;17.60;28.80
1011;DHT22;494;48.744;10.106;2023-05-10T15:52:38;17.60;29.80
1011;DHT22;494;48.744;10.106;2023-05-10T15:55:08;17.70;30.20
1011;DHT22;494;48.744;10.106;2023-05-10T15:57:39;17.80;30.10
1011;DHT22;494;48.744;10.106;2023-05-10T16:00:11;17.80;29.60
1011;DHT22;494;48.744;10.106;2023-05-10T16:02:40;17.80;30.40
1011;DHT22;494;48.744;10.106;2023-05-10T16:05:09;17.80;31.70
1011;DHT22;494;48.744;10.106;2023-05-10T16:07:39;17.70;28.50
1011;DHT22;494;48.744;10.106;2023-05-10T16:10:09;17.70;28.40
1011;DHT22;494;48.744;10.106;2023-05-10T16:12:39;17.70;30.20
1011;DHT22;494;48.744;10.106;2023-05-10T16:15:10;17.50;30.50
1011;DHT22;494;48.744;10.106;2023-05-10T16:17:39;17.40;30.90
1011;DHT22;494;48.744;10.106;2023-05-10T16:20:09;17.30;31.10
1011;DHT22;494;48.744;10.106;2023-05-10T16:22:38;17.20;30.90
1011;DHT22;494;48.744;10.106;2023-05-10T16:25:07;17.10;32.00
1011;DHT22;494;48.744;10.106;2023-05-10T16:27:39;17.20;31.90
1011;DHT22;494;48.744;10.106;2023-05-10T16:30:10;17.20;31.90
1011;DHT22;494;48.744;10.106;2023-05-10T16:32:39;17.10;31.40
1011;DHT22;494;48.744;10.106;2023-05-10T16:35:08;17.00;31.50